sensor_id;sensor_type;location;lat;lon;timestamp;pressure;altitude;pressure_sealevel;temperature;humidity
76132;BME280;64877;50.994;13.650;2023-05-07T00:01:46;99989.00;;;10.64;80.37
76132;BME280;64877;50.994;13.650;2023-05-07T00:04:11;99994.97;;;10.56;80.34
76132;BME280;64877;50.994;13.650;2023-05-07T00:06:36;99997.66;;;10.56;79.48
76132;BME280;64877;50.994;13.650;2023-05-07T00:09:02;99995.81;;;10.56;80.30
76132;BME280;64877;50.994;13.650;2023-05-07T00:11:29;100002.81;;;10.59;80.54
76132;BME280;64877;50.994;13.650;2023-05-07T00:13:54;100002.28;;;10.67;80.07
76132;BME280;64877;50.994;13.650;2023-05-07T00:16:20;99994.63;;;10.60;80.24
76132;BME280;64877;50.994;13.650;2023-05-07T00:18:45;99987.72;;;10.56;80.41
76132;BME280;64877;50.994;13.650;2023-05-07T00:21:11;99992.06;;;10.46;80.92
76132;BME280;64877;50.994;13.650;2023-05-07T00:23:36;99991.53;;;10.41;80.88
76132;BME280;64877;50.994;13.650;2023-05-07T00:26:02;99991.22;;;10.46;81.28
76132;BME280;64877;50.994;13.650;2023-05-07T00:28:27;99989.56;;;10.43;81.31
76132;BME280;64877;50.994;13.650;2023-05-07T00:30:53;99990.13;;;10.35;81.95
76132;BME280;64877;50.994;13.650;2023-05-07T00:33:18;99993.47;;;10.39;81.69
76132;BME280;64877;50.994;13.650;2023-05-07T00:35:45;99996.94;;;10.41;81.20
76132;BME280;64877;50.994;13.650;2023-05-07T00:38:10;99990.34;;;10.45;81.61
76132;BME280;64877;50.994;13.650;2023-05-07T00:40:36;99986.66;;;10.46;81.68
76132;BME280;64877;50.994;13.650;2023-05-07T00:43:01;99991.31;;;10.44;81.42
76132;BME280;64877;50.994;13.650;2023-05-07T00:45:27;99990.75;;;10.39;81.71
76132;BME280;64877;50.994;13.650;2023-05-07T00:47:55;99999.19;;;10.47;81.87
76132;BME280;64877;50.994;13.650;2023-05-07T00:50:21;99990.75;;;10.39;82.50
76132;BME280;64877;50.994;13.650;2023-05-07T00:52:47;99989.16;;;10.37;82.31
76132;BME280;64877;50.994;13.650;2023-05-07T00:55:12;99992.50;;;10.27;83.26
76132;BME280;64877;50.994;13.650;2023-05-07T00:57:40;99991.22;;;10.33;83.05
76132;BME280;64877;50.994;13.650;2023-05-07T01:00:07;99984.09;;;10.32;82.64
76132;BME280;64877;50.994;13.650;2023-05-07T01:02:37;99993.13;;;10.18;82.51
76132;BME280;64877;50.994;13.650;2023-05-07T01:05:04;99991.84;;;10.24;82.44
76132;BME280;64877;50.994;13.650;2023-05-07T01:07:31;99987.97;;;10.28;82.63
76132;BME280;64877;50.994;13.650;2023-05-07T01:09:57;99992.81;;;10.23;82.37
76132;BME280;64877;50.994;13.650;2023-05-07T01:12:24;99994.09;;;10.17;82.90
76132;BME280;64877;50.994;13.650;2023-05-07T01:14:50;99990.97;;;10.10;83.30
76132;BME280;64877;50.994;13.650;2023-05-07T01:17:16;99997.44;;;10.08;84.16
76132;BME280;64877;50.994;13.650;2023-05-07T01:19:41;99987.75;;;10.05;82.92
76132;BME280;64877;50.994;13.650;2023-05-07T01:22:09;99993.53;;;9.99;83.73
76132;BME280;64877;50.994;13.650;2023-05-07T01:24:37;100001.25;;;10.05;84.12
76132;BME280;64877;50.994;13.650;2023-05-07T01:27:03;100000.91;;;9.97;83.58
76132;BME280;64877;50.994;13.650;2023-05-07T01:29:28;99997.69;;;10.05;83.26
76132;BME280;64877;50.994;13.650;2023-05-07T01:31:59;100010.84;;;10.09;83.59
76132;BME280;64877;50.994;13.650;2023-05-07T01:34:27;100005.44;;;10.09;83.08
76132;BME280;64877;50.994;13.650;2023-05-07T01:36:54;100004.91;;;10.04;83.07
76132;BME280;64877;50.994;13.650;2023-05-07T01:39:23;100008.03;;;10.11;82.83
76132;BME280;64877;50.994;13.650;2023-05-07T01:41:49;100011.47;;;10.13;82.51
76132;BME280;64877;50.994;13.650;2023-05-07T01:44:16;100014.09;;;10.15;82.90
76132;BME280;64877;50.994;13.650;2023-05-07T01:46:43;100013.63;;;10.08;82.20
76132;BME280;64877;50.994;13.650;2023-05-07T01:49:09;100013.31;;;10.13;82.42
76132;BME280;64877;50.994;13.650;2023-05-07T01:51:35;100015.81;;;10.16;82.73
76132;BME280;64877;50.994;13.650;2023-05-07T01:54:01;100010.84;;;10.09;82.60
76132;BME280;64877;50.994;13.650;2023-05-07T01:56:26;100008.47;;;10.18;82.29
76132;BME280;64877;50.994;13.650;2023-05-07T01:58:52;100011.03;;;10.19;82.25
76132;BME280;64877;50.994;13.650;2023-05-07T02:01:17;100003.91;;;10.18;81.49
76132;BME280;64877;50.994;13.650;2023-05-07T02:03:43;100013.56;;;10.09;80.88
76132;BME280;64877;50.994;13.650;2023-05-07T02:06:09;100010.09;;;10.20;81.67
76132;BME280;64877;50.994;13.650;2023-05-07T02:08:34;100001.53;;;10.14;81.35
76132;BME280;64877;50.994;13.650;2023-05-07T02:11:00;100003.59;;;10.23;81.17
76132;BME280;64877;50.994;13.650;2023-05-07T02:13:31;100003.28;;;10.15;80.91
76132;BME280;64877;50.994;13.650;2023-05-07T02:15:57;100008.25;;;10.21;80.57
76132;BME280;64877;50.994;13.650;2023-05-07T02:18:22;100013.44;;;10.24;80.22
76132;BME280;64877;50.994;13.650;2023-05-07T02:20:48;100012.69;;;10.22;79.79
76132;BME280;64877;50.994;13.650;2023-05-07T02:23:13;100013.84;;;10.18;80.13
76132;BME280;64877;50.994;13.650;2023-05-07T02:25:39;100017.72;;;10.14;80.63
76132;BME280;64877;50.994;13.650;2023-05-07T02:28:04;100019.91;;;10.21;81.79
76132;BME280;64877;50.994;13.650;2023-05-07T02:30:29;100013.25;;;10.27;80.94
76132;BME280;64877;50.994;13.650;2023-05-07T02:32:55;100011.66;;;10.24;80.75
76132;BME280;64877;50.994;13.650;2023-05-07T02:35:20;100016.47;;;10.32;80.94
76132;BME280;64877;50.994;13.650;2023-05-07T02:37:46;100018.19;;;10.33;80.53
76132;BME280;64877;50.994;13.650;2023-05-07T02:40:11;100020.28;;;10.29;80.33
76132;BME280;64877;50.994;13.650;2023-05-07T02:42:37;100006.44;;;10.34;80.08
76132;BME280;64877;50.994;13.650;2023-05-07T02:45:03;100008.38;;;10.45;79.99
76132;BME280;64877;50.994;13.650;2023-05-07T02:47:28;100014.31;;;10.37;79.53
76132;BME280;64877;50.994;13.650;2023-05-07T02:49:54;100016.03;;;10.38;79.02
76132;BME280;64877;50.994;13.650;2023-05-07T02:52:20;100017.56;;;10.42;79.08
76132;BME280;64877;50.994;13.650;2023-05-07T02:54:45;100005.47;;;10.35;78.94
76132;BME280;64877;50.994;13.650;2023-05-07T02:57:11;100006.88;;;10.41;79.20
76132;BME280;64877;50.994;13.650;2023-05-07T02:59:36;100014.31;;;10.37;78.60
76132;BME280;64877;50.994;13.650;2023-05-07T03:02:02;100019.72;;;10.37;79.40
76132;BME280;64877;50.994;13.650;2023-05-07T03:04:27;100015.63;;;10.31;78.56
76132;BME280;64877;50.994;13.650;2023-05-07T03:06:52;100007.19;;;10.36;79.22
76132;BME280;64877;50.994;13.650;2023-05-07T03:09:18;100000.81;;;10.37;78.40
76132;BME280;64877;50.994;13.650;2023-05-07T03:11:43;100013.66;;;10.33;79.21
76132;BME280;64877;50.994;13.650;2023-05-07T03:14:08;100013.03;;;10.30;78.88
76132;BME280;64877;50.994;13.650;2023-05-07T03:16:34;100010.34;;;10.30;78.20
76132;BME280;64877;50.994;13.650;2023-05-07T03:18:59;100010.03;;;10.34;78.91
76132;BME280;64877;50.994;13.650;2023-05-07T03:21:25;100016.91;;;10.39;78.85
76132;BME280;64877;50.994;13.650;2023-05-07T03:23:51;100022.09;;;10.29;78.54
76132;BME280;64877;50.994;13.650;2023-05-07T03:26:17;100020.91;;;10.33;78.71
76132;BME280;64877;50.994;13.650;2023-05-07T03:28:42;100018.63;;;10.27;79.26
76132;BME280;64877;50.994;13.650;2023-05-07T03:31:07;100022.63;;;10.34;78.67
76132;BME280;64877;50.994;13.650;2023-05-07T03:33:33;100022.41;;;10.37;79.10
76132;BME280;64877;50.994;13.650;2023-05-07T03:36:00;100025.13;;;10.37;78.81
76132;BME280;64877;50.994;13.650;2023-05-07T03:38:25;100029.97;;;10.32;78.54
76132;BME280;64877;50.994;13.650;2023-05-07T03:40:51;100027.28;;;10.32;78.51
76132;BME280;64877;50.994;13.650;2023-05-07T03:43:16;100025.75;;;10.28;78.86
76132;BME280;64877;50.994;13.650;2023-05-07T03:45:42;100022.53;;;10.35;77.85
76132;BME280;64877;50.994;13.650;2023-05-07T03:48:07;100032.69;;;10.32;77.56
76132;BME280;64877;50.994;13.650;2023-05-07T03:50:32;100035.03;;;10.24;78.21
76132;BME280;64877;50.994;13.650;2023-05-07T03:52:58;100036.56;;;10.28;78.09
76132;BME280;64877;50.994;13.650;2023-05-07T03:55:23;100031.81;;;10.31;78.48
76132;BME280;64877;50.994;13.650;2023-05-07T03:57:49;100032.47;;;10.35;77.99
76132;BME280;64877;50.994;13.650;2023-05-07T04:00:14;100032.91;;;10.42;77.65
76132;BME280;64877;50.994;13.650;2023-05-07T04:02:40;100033.13;;;10.26;77.30
76132;BME280;64877;50.994;13.650;2023-05-07T04:05:06;100038.28;;;10.29;77.63
76132;BME280;64877;50.994;13.650;2023-05-07T04:07:31;100033.22;;;10.37;77.72
76132;BME280;64877;50.994;13.650;2023-05-07T04:09:56;100034.19;;;10.36;77.08
76132;BME280;64877;50.994;13.650;2023-05-07T04:12:22;100028.78;;;10.36;77.25
76132;BME280;64877;50.994;13.650;2023-05-07T04:14:47;100037.09;;;10.33;77.52
76132;BME280;64877;50.994;13.650;2023-05-07T04:17:12;100041.44;;;10.35;77.50
76132;BME280;64877;50.994;13.650;2023-05-07T04:19:38;100045.22;;;10.46;76.76
76132;BME280;64877;50.994;13.650;2023-05-07T04:22:03;100037.66;;;10.51;76.97
76132;BME280;64877;50.994;13.650;2023-05-07T04:24:31;100035.47;;;10.43;77.51
76132;BME280;64877;50.994;13.650;2023-05-07T04:26:57;100040.47;;;10.49;76.89
76132;BME280;64877;50.994;13.650;2023-05-07T04:29:23;100053.19;;;10.47;77.42
76132;BME280;64877;50.994;13.650;2023-05-07T04:31:49;100047.78;;;10.47;77.11
76132;BME280;64877;50.994;13.650;2023-05-07T04:34:15;100050.59;;;10.58;77.15
76132;BME280;64877;50.994;13.650;2023-05-07T04:36:41;100058.81;;;10.44;77.39
76132;BME280;64877;50.994;13.650;2023-05-07T04:39:07;100062.38;;;10.45;77.05
76132;BME280;64877;50.994;13.650;2023-05-07T04:41:35;100075.56;;;10.49;76.72
76132;BME280;64877;50.994;13.650;2023-05-07T04:44:01;100060.09;;;10.26;76.97
76132;BME280;64877;50.994;13.650;2023-05-07T04:46:26;100064.72;;;10.24;77.25
76132;BME280;64877;50.994;13.650;2023-05-07T04:48:52;100075.00;;;10.31;77.36
76132;BME280;64877;50.994;13.650;2023-05-07T04:51:17;100071.44;;;10.31;77.41
76132;BME280;64877;50.994;13.650;2023-05-07T04:53:42;100082.31;;;10.17;78.52
76132;BME280;64877;50.994;13.650;2023-05-07T04:56:08;100089.19;;;10.08;78.34
76132;BME280;64877;50.994;13.650;2023-05-07T04:58:34;100085.72;;;9.93;78.72
76132;BME280;64877;50.994;13.650;2023-05-07T05:00:59;100087.44;;;9.94;79.09
76132;BME280;64877;50.994;13.650;2023-05-07T05:03:25;100092.13;;;10.05;79.17
76132;BME280;64877;50.994;13.650;2023-05-07T05:05:51;100096.44;;;10.07;78.60
76132;BME280;64877;50.994;13.650;2023-05-07T05:08:17;100086.13;;;10.27;78.85
76132;BME280;64877;50.994;13.650;2023-05-07T05:10:43;100087.69;;;10.17;78.51
76132;BME280;64877;50.994;13.650;2023-05-07T05:13:09;100087.28;;;10.10;78.74
76132;BME280;64877;50.994;13.650;2023-05-07T05:15:35;100092.75;;;10.08;78.21
76132;BME280;64877;50.994;13.650;2023-05-07T05:18:00;100089.50;;;10.03;78.95
76132;BME280;64877;50.994;13.650;2023-05-07T05:20:26;100092.66;;;10.10;78.80
76132;BME280;64877;50.994;13.650;2023-05-07T05:22:51;100084.47;;;10.12;78.71
76132;BME280;64877;50.994;13.650;2023-05-07T05:25:17;100097.31;;;10.21;78.01
76132;BME280;64877;50.994;13.650;2023-05-07T05:27:42;100089.50;;;10.30;77.79
76132;BME280;64877;50.994;13.650;2023-05-07T05:30:08;100094.56;;;10.48;77.53
76132;BME280;64877;50.994;13.650;2023-05-07T05:32:33;100093.78;;;10.33;77.47
76132;BME280;64877;50.994;13.650;2023-05-07T05:34:58;100091.88;;;10.35;77.47
76132;BME280;64877;50.994;13.650;2023-05-07T05:37:25;100102.53;;;10.24;77.01
76132;BME280;64877;50.994;13.650;2023-05-07T05:39:50;100104.59;;;10.33;77.64
76132;BME280;64877;50.994;13.650;2023-05-07T05:42:15;100107.19;;;10.47;76.82
76132;BME280;64877;50.994;13.650;2023-05-07T05:44:41;100107.84;;;10.38;76.67
76132;BME280;64877;50.994;13.650;2023-05-07T05:47:06;100120.63;;;10.22;76.28
76132;BME280;64877;50.994;13.650;2023-05-07T05:49:31;100121.69;;;10.19;76.85
76132;BME280;64877;50.994;13.650;2023-05-07T05:51:57;100121.63;;;10.21;77.31
76132;BME280;64877;50.994;13.650;2023-05-07T05:54:22;100119.34;;;10.15;77.27
76132;BME280;64877;50.994;13.650;2023-05-07T05:56:48;100123.06;;;10.26;76.87
76132;BME280;64877;50.994;13.650;2023-05-07T05:59:14;100125.56;;;10.29;77.82
76132;BME280;64877;50.994;13.650;2023-05-07T06:01:40;100128.13;;;10.31;77.04
76132;BME280;64877;50.994;13.650;2023-05-07T06:04:05;100133.66;;;10.42;76.13
76132;BME280;64877;50.994;13.650;2023-05-07T06:06:31;100133.00;;;10.39;76.05
76132;BME280;64877;50.994;13.650;2023-05-07T06:08:57;100142.00;;;10.12;76.59
76132;BME280;64877;50.994;13.650;2023-05-07T06:11:22;100142.66;;;10.16;77.17
76132;BME280;64877;50.994;13.650;2023-05-07T06:13:47;100143.63;;;10.15;77.28
76132;BME280;64877;50.994;13.650;2023-05-07T06:16:14;100148.78;;;10.05;77.80
76132;BME280;64877;50.994;13.650;2023-05-07T06:18:40;100150.19;;;10.10;77.76
76132;BME280;64877;50.994;13.650;2023-05-07T06:21:05;100160.22;;;10.08;77.29
76132;BME280;64877;50.994;13.650;2023-05-07T06:23:31;100154.19;;;10.18;76.99
76132;BME280;64877;50.994;13.650;2023-05-07T06:25:56;100152.44;;;10.31;75.64
76132;BME280;64877;50.994;13.650;2023-05-07T06:28:21;100152.88;;;10.25;75.26
76132;BME280;64877;50.994;13.650;2023-05-07T06:30:47;100150.31;;;10.22;76.31
76132;BME280;64877;50.994;13.650;2023-05-07T06:33:15;100153.19;;;10.33;74.84
76132;BME280;64877;50.994;13.650;2023-05-07T06:35:40;100155.59;;;10.10;75.31
76132;BME280;64877;50.994;13.650;2023-05-07T06:38:05;100156.09;;;9.90;76.29
76132;BME280;64877;50.994;13.650;2023-05-07T06:40:31;100166.00;;;9.90;76.60
76132;BME280;64877;50.994;13.650;2023-05-07T06:42:56;100167.44;;;9.95;76.24
76132;BME280;64877;50.994;13.650;2023-05-07T06:45:21;100172.28;;;9.90;75.97
76132;BME280;64877;50.994;13.650;2023-05-07T06:47:47;100174.59;;;9.82;77.04
76132;BME280;64877;50.994;13.650;2023-05-07T06:50:12;100175.34;;;9.84;75.77
76132;BME280;64877;50.994;13.650;2023-05-07T06:52:38;100172.03;;;9.93;76.55
76132;BME280;64877;50.994;13.650;2023-05-07T06:55:04;100176.38;;;9.96;76.56
76132;BME280;64877;50.994;13.650;2023-05-07T06:57:30;100172.72;;;9.97;76.08
76132;BME280;64877;50.994;13.650;2023-05-07T06:59:55;100180.31;;;10.04;75.15
76132;BME280;64877;50.994;13.650;2023-05-07T07:02:21;100178.56;;;10.03;75.36
76132;BME280;64877;50.994;13.650;2023-05-07T07:04:46;100180.31;;;10.04;75.35
76132;BME280;64877;50.994;13.650;2023-05-07T07:07:11;100172.03;;;9.93;75.40
76132;BME280;64877;50.994;13.650;2023-05-07T07:09:37;100174.91;;;10.04;75.01
76132;BME280;64877;50.994;13.650;2023-05-07T07:12:02;100177.06;;;10.12;75.37
76132;BME280;64877;50.994;13.650;2023-05-07T07:14:28;100173.59;;;10.24;74.58
76132;BME280;64877;50.994;13.650;2023-05-07T07:16:53;100175.03;;;10.16;74.73
76132;BME280;64877;50.994;13.650;2023-05-07T07:19:18;100172.91;;;10.21;74.20
76132;BME280;64877;50.994;13.650;2023-05-07T07:21:45;100188.84;;;10.11;75.06
76132;BME280;64877;50.994;13.650;2023-05-07T07:24:10;100186.81;;;10.15;73.78
76132;BME280;64877;50.994;13.650;2023-05-07T07:26:36;100178.38;;;10.19;74.27
76132;BME280;64877;50.994;13.650;2023-05-07T07:29:01;100185.56;;;10.33;74.00
76132;BME280;64877;50.994;13.650;2023-05-07T07:31:26;100185.63;;;10.46;74.00
76132;BME280;64877;50.994;13.650;2023-05-07T07:33:52;100187.16;;;10.63;73.37
76132;BME280;64877;50.994;13.650;2023-05-07T07:36:17;100182.59;;;10.50;73.26
76132;BME280;64877;50.994;13.650;2023-05-07T07:38:43;100185.06;;;10.53;72.79
76132;BME280;64877;50.994;13.650;2023-05-07T07:41:08;100181.50;;;10.53;73.19
76132;BME280;64877;50.994;13.650;2023-05-07T07:43:34;100184.13;;;10.67;71.79
76132;BME280;64877;50.994;13.650;2023-05-07T07:46:00;100185.09;;;10.66;71.84
76132;BME280;64877;50.994;13.650;2023-05-07T07:48:26;100204.97;;;10.78;71.72
76132;BME280;64877;50.994;13.650;2023-05-07T07:50:51;100202.59;;;10.60;71.95
76132;BME280;64877;50.994;13.650;2023-05-07T07:53:17;100203.34;;;10.63;72.39
76132;BME280;64877;50.994;13.650;2023-05-07T07:55:43;100201.09;;;10.56;72.20
76132;BME280;64877;50.994;13.650;2023-05-07T07:58:08;100203.81;;;10.69;72.70
76132;BME280;64877;50.994;13.650;2023-05-07T08:00:33;100201.00;;;10.71;72.41
76132;BME280;64877;50.994;13.650;2023-05-07T08:02:59;100206.63;;;10.93;72.53
76132;BME280;64877;50.994;13.650;2023-05-07T08:05:25;100208.75;;;11.13;73.45
76132;BME280;64877;50.994;13.650;2023-05-07T08:07:51;100208.44;;;11.18;72.65
76132;BME280;64877;50.994;13.650;2023-05-07T08:10:18;100204.66;;;11.08;71.45
76132;BME280;64877;50.994;13.650;2023-05-07T08:12:50;100205.53;;;11.21;74.48
76132;BME280;64877;50.994;13.650;2023-05-07T08:15:16;100212.25;;;11.16;71.35
76132;BME280;64877;50.994;13.650;2023-05-07T08:17:41;100209.22;;;11.07;72.65
76132;BME280;64877;50.994;13.650;2023-05-07T08:20:07;100207.59;;;11.05;73.22
76132;BME280;64877;50.994;13.650;2023-05-07T08:22:36;100218.50;;;11.03;73.02
76132;BME280;64877;50.994;13.650;2023-05-07T08:25:02;100216.25;;;10.97;72.29
76132;BME280;64877;50.994;13.650;2023-05-07T08:27:28;100216.69;;;10.91;72.14
76132;BME280;64877;50.994;13.650;2023-05-07T08:29:53;100216.47;;;10.94;72.99
76132;BME280;64877;50.994;13.650;2023-05-07T08:32:20;100218.06;;;10.84;71.76
76132;BME280;64877;50.994;13.650;2023-05-07T08:34:45;100223.47;;;10.84;72.50
76132;BME280;64877;50.994;13.650;2023-05-07T08:37:11;100211.72;;;10.85;73.59
76132;BME280;64877;50.994;13.650;2023-05-07T08:39:36;100229.53;;;11.00;71.42
76132;BME280;64877;50.994;13.650;2023-05-07T08:42:03;100217.09;;;10.98;71.87
76132;BME280;64877;50.994;13.650;2023-05-07T08:44:33;100222.59;;;10.83;70.87
76132;BME280;64877;50.994;13.650;2023-05-07T08:47:00;100229.72;;;10.72;71.25
76132;BME280;64877;50.994;13.650;2023-05-07T08:49:26;100226.47;;;10.67;75.41
76132;BME280;64877;50.994;13.650;2023-05-07T08:51:52;100230.16;;;10.66;74.71
76132;BME280;64877;50.994;13.650;2023-05-07T08:54:18;100229.09;;;10.81;72.74
76132;BME280;64877;50.994;13.650;2023-05-07T08:56:44;100234.63;;;10.79;71.08
76132;BME280;64877;50.994;13.650;2023-05-07T08:59:10;100244.34;;;10.82;71.50
76132;BME280;64877;50.994;13.650;2023-05-07T09:01:35;100244.66;;;10.65;70.59
76132;BME280;64877;50.994;13.650;2023-05-07T09:04:01;100238.69;;;10.72;70.98
76132;BME280;64877;50.994;13.650;2023-05-07T09:06:27;100248.66;;;10.84;71.67
76132;BME280;64877;50.994;13.650;2023-05-07T09:08:54;100228.88;;;10.84;72.02
76132;BME280;64877;50.994;13.650;2023-05-07T09:11:21;100245.31;;;10.81;71.29
76132;BME280;64877;50.994;13.650;2023-05-07T09:13:48;100239.91;;;10.81;71.41
76132;BME280;64877;50.994;13.650;2023-05-07T09:16:14;100243.59;;;10.80;70.74
76132;BME280;64877;50.994;13.650;2023-05-07T09:18:41;100243.47;;;10.81;71.00
76132;BME280;64877;50.994;13.650;2023-05-07T09:21:09;100251.91;;;10.90;72.25
76132;BME280;64877;50.994;13.650;2023-05-07T09:23:35;100254.50;;;11.04;70.44
76132;BME280;64877;50.994;13.650;2023-05-07T09:26:00;100247.06;;;11.07;73.37
76132;BME280;64877;50.994;13.650;2023-05-07T09:28:27;100250.94;;;11.03;72.02
76132;BME280;64877;50.994;13.650;2023-05-07T09:30:52;100255.47;;;11.03;70.12
76132;BME280;64877;50.994;13.650;2023-05-07T09:33:17;100247.69;;;10.98;70.71
76132;BME280;64877;50.994;13.650;2023-05-07T09:35:43;100255.88;;;10.84;71.01
76132;BME280;64877;50.994;13.650;2023-05-07T09:38:08;100253.31;;;10.95;71.61
76132;BME280;64877;50.994;13.650;2023-05-07T09:40:34;100248.13;;;10.92;70.65
76132;BME280;64877;50.994;13.650;2023-05-07T09:43:09;100235.78;;;11.13;71.94
76132;BME280;64877;50.994;13.650;2023-05-07T09:45:36;100244.44;;;11.19;70.81
76132;BME280;64877;50.994;13.650;2023-05-07T09:48:04;100244.25;;;11.22;70.55
76132;BME280;64877;50.994;13.650;2023-05-07T09:50:36;100248.38;;;11.15;69.70
76132;BME280;64877;50.994;13.650;2023-05-07T09:53:03;100245.56;;;11.29;69.92
76132;BME280;64877;50.994;13.650;2023-05-07T09:55:29;100250.09;;;11.16;70.16
76132;BME280;64877;50.994;13.650;2023-05-07T09:57:56;100244.25;;;11.22;70.03
76132;BME280;64877;50.994;13.650;2023-05-07T10:00:22;100247.47;;;10.88;70.65
76132;BME280;64877;50.994;13.650;2023-05-07T10:02:49;100255.50;;;11.16;71.70
76132;BME280;64877;50.994;13.650;2023-05-07T10:05:17;100250.97;;;11.29;69.93
76132;BME280;64877;50.994;13.650;2023-05-07T10:07:43;100249.97;;;11.30;72.23
76132;BME280;64877;50.994;13.650;2023-05-07T10:10:10;100244.47;;;11.44;72.59
76132;BME280;64877;50.994;13.650;2023-05-07T10:12:35;100246.13;;;11.71;69.24
76132;BME280;64877;50.994;13.650;2023-05-07T10:15:08;100248.72;;;11.85;68.63
76132;BME280;64877;50.994;13.650;2023-05-07T10:17:38;100245.03;;;11.86;66.73
76132;BME280;64877;50.994;13.650;2023-05-07T10:20:05;100257.97;;;12.06;66.04
76132;BME280;64877;50.994;13.650;2023-05-07T10:22:45;100248.53;;;12.36;65.82
76132;BME280;64877;50.994;13.650;2023-05-07T10:25:17;100253.25;;;12.45;64.19
76132;BME280;64877;50.994;13.650;2023-05-07T10:27:44;100243.84;;;12.38;64.17
76132;BME280;64877;50.994;13.650;2023-05-07T10:30:40;100248.47;;;12.25;64.86
76132;BME280;64877;50.994;13.650;2023-05-07T10:33:13;100242.28;;;12.23;66.04
76132;BME280;64877;50.994;13.650;2023-05-07T10:35:45;100245.84;;;12.47;64.85
76132;BME280;64877;50.994;13.650;2023-05-07T10:38:11;100239.09;;;12.53;64.68
76132;BME280;64877;50.994;13.650;2023-05-07T10:40:37;100246.81;;;12.35;63.37
76132;BME280;64877;50.994;13.650;2023-05-07T10:43:04;100249.47;;;12.24;64.78
76132;BME280;64877;50.994;13.650;2023-05-07T10:45:30;100243.97;;;12.12;66.30
76132;BME280;64877;50.994;13.650;2023-05-07T10:48:09;100254.28;;;12.07;64.78
76132;BME280;64877;50.994;13.650;2023-05-07T10:50:36;100247.97;;;12.20;65.51
76132;BME280;64877;50.994;13.650;2023-05-07T10:55:43;100237.28;;;12.29;64.96
76132;BME280;64877;50.994;13.650;2023-05-07T10:58:25;100243.63;;;12.17;65.06
76132;BME280;64877;50.994;13.650;2023-05-07T11:00:58;100254.22;;;12.20;65.47
76132;BME280;64877;50.994;13.650;2023-05-07T11:03:24;100251.88;;;12.15;64.70
76132;BME280;64877;50.994;13.650;2023-05-07T11:06:17;100243.88;;;12.14;65.88
76132;BME280;64877;50.994;13.650;2023-05-07T11:11:17;100250.59;;;12.08;68.08
76132;BME280;64877;50.994;13.650;2023-05-07T11:13:49;100250.25;;;12.13;65.37
76132;BME280;64877;50.994;13.650;2023-05-07T11:16:23;100249.72;;;12.08;66.46
76132;BME280;64877;50.994;13.650;2023-05-07T11:18:53;100244.13;;;11.98;66.14
76132;BME280;64877;50.994;13.650;2023-05-07T11:21:40;100247.59;;;12.00;65.76
76132;BME280;64877;50.994;13.650;2023-05-07T11:24:08;100246.16;;;12.07;68.38
76132;BME280;64877;50.994;13.650;2023-05-07T11:26:47;100253.00;;;12.00;67.62
76132;BME280;64877;50.994;13.650;2023-05-07T11:29:20;100251.03;;;12.02;65.97
76132;BME280;64877;50.994;13.650;2023-05-07T11:31:53;100246.31;;;12.17;66.84
76132;BME280;64877;50.994;13.650;2023-05-07T11:34:24;100249.03;;;12.17;65.65
76132;BME280;64877;50.994;13.650;2023-05-07T11:36:50;100242.25;;;12.35;67.03
76132;BME280;64877;50.994;13.650;2023-05-07T11:39:25;100240.53;;;12.34;72.04
76132;BME280;64877;50.994;13.650;2023-05-07T11:41:51;100239.94;;;12.42;68.75
76132;BME280;64877;50.994;13.650;2023-05-07T11:44:16;100242.97;;;12.61;67.16
76132;BME280;64877;50.994;13.650;2023-05-07T11:46:44;100241.06;;;12.86;63.03
76132;BME280;64877;50.994;13.650;2023-05-07T11:49:10;100242.94;;;12.97;64.93
76132;BME280;64877;50.994;13.650;2023-05-07T11:51:36;100240.88;;;13.11;62.89
76132;BME280;64877;50.994;13.650;2023-05-07T11:54:03;100235.94;;;13.16;62.37
76132;BME280;64877;50.994;13.650;2023-05-07T11:56:29;100234.09;;;13.17;64.31
76132;BME280;64877;50.994;13.650;2023-05-07T11:58:59;100234.06;;;12.94;61.65
76132;BME280;64877;50.994;13.650;2023-05-07T12:01:24;100239.38;;;12.96;63.04
76132;BME280;64877;50.994;13.650;2023-05-07T12:03:50;100240.84;;;13.00;63.17
76132;BME280;64877;50.994;13.650;2023-05-07T12:06:16;100245.78;;;12.95;62.93
76132;BME280;64877;50.994;13.650;2023-05-07T12:08:42;100246.50;;;12.86;62.95
76132;BME280;64877;50.994;13.650;2023-05-07T12:11:11;100242.25;;;12.71;64.26
76132;BME280;64877;50.994;13.650;2023-05-07T12:13:37;100246.25;;;12.89;63.55
76132;BME280;64877;50.994;13.650;2023-05-07T12:16:04;100249.91;;;12.77;64.05
76132;BME280;64877;50.994;13.650;2023-05-07T12:18:30;100254.91;;;12.94;63.87
76132;BME280;64877;50.994;13.650;2023-05-07T12:20:56;100239.34;;;12.85;64.05
76132;BME280;64877;50.994;13.650;2023-05-07T12:23:22;100253.25;;;12.80;64.12
76132;BME280;64877;50.994;13.650;2023-05-07T12:25:48;100259.31;;;12.84;65.76
76132;BME280;64877;50.994;13.650;2023-05-07T12:28:18;100250.91;;;12.87;66.64
76132;BME280;64877;50.994;13.650;2023-05-07T12:30:45;100258.59;;;12.93;66.70
76132;BME280;64877;50.994;13.650;2023-05-07T12:33:11;100255.75;;;12.94;66.35
76132;BME280;64877;50.994;13.650;2023-05-07T12:35:39;100255.16;;;13.02;68.12
76132;BME280;64877;50.994;13.650;2023-05-07T12:38:09;100262.72;;;13.21;63.67
76132;BME280;64877;50.994;13.650;2023-05-07T12:40:37;100247.09;;;13.25;63.72
76132;BME280;64877;50.994;13.650;2023-05-07T12:43:03;100249.38;;;13.07;64.15